Time;durP1;ratioP1;P1;durP2;ratioP2;P2;SDS_P1;SDS_P2;PMS_P1;PMS_P2;Temp;Humidity;BMP_temperature;BMP_pressure;BME280_temperature;BME280_humidity;BME280_pressure;Samples;Min_cycle;Max_cycle;Signal;HPM_P1;HPM_P2
2023/04/23 00:01:39;;;;;;;;;;;;;;;7.08;100.00;100808.19;4955341;28;19929;-73
2023/04/23 00:04:05;;;;;;;;;;;;;;;7.00;100.00;100806.84;4963215;28;20422;-73
2023/04/23 00:06:31;;;;;;;;;;;;;;;7.00;100.00;100806.84;4956254;28;20501;-73
2023/04/23 00:08:56;;;;;;;;;;;;;;;6.98;100.00;100797.22;4939780;28;19922;-73
2023/04/23 00:11:22;;;;;;;;;;;;;;;7.02;100.00;100793.38;4948378;28;20012;-73
2023/04/23 00:13:48;;;;;;;;;;;;;;;6.92;100.00;100794.94;4951386;28;19922;-73
2023/04/23 00:16:13;;;;;;;;;;;;;;;6.87;100.00;100781.91;4964837;28;20678;-73
2023/04/23 00:18:38;;;;;;;;;;;;;;;6.99;100.00;100774.91;4953350;28;19972;-73
2023/04/23 00:21:04;;;;;;;;;;;;;;;6.92;100.00;100785.09;4969280;28;19926;-73
2023/04/23 00:23:29;;;;;;;;;;;;;;;6.86;100.00;100788.19;4950072;28;19926;-73
2023/04/23 00:25:54;;;;;;;;;;;;;;;6.86;100.00;100778.34;4953874;28;19923;-73
2023/04/23 00:28:20;;;;;;;;;;;;;;;6.87;100.00;100785.41;4954758;28;19922;-73
2023/04/23 00:30:45;;;;;;;;;;;;;;;6.92;100.00;100782.44;4957596;28;19922;-72
2023/04/23 00:33:10;;;;;;;;;;;;;;;6.93;100.00;100781.47;4955662;28;19926;-73
2023/04/23 00:35:35;;;;;;;;;;;;;;;6.88;100.00;100776.44;4940629;28;20408;-73
2023/04/23 00:38:00;;;;;;;;;;;;;;;6.95;100.00;100779.56;4958869;28;19925;-73
2023/04/23 00:40:26;;;;;;;;;;;;;;;6.98;100.00;100770.53;4949805;28;19922;-73
2023/04/23 00:42:52;;;;;;;;;;;;;;;6.92;100.00;100769.09;4957197;28;20137;-73
2023/04/23 00:45:17;;;;;;;;;;;;;;;6.88;100.00;100762.25;4943784;28;19977;-73
2023/04/23 00:47:43;;;;;;;;;;;;;;;6.85;100.00;100754.44;4942455;28;20464;-74
2023/04/23 00:50:08;;;;;;;;;;;;;;;6.82;100.00;100766.16;4947303;28;19922;-73
2023/04/23 00:52:34;;;;;;;;;;;;;;;6.86;100.00;100750.81;4932804;28;19933;-73
2023/04/23 00:55:00;;;;;;;;;;;;;;;6.74;100.00;100745.28;4958842;28;19929;-73
2023/04/23 00:57:25;;;;;;;;;;;;;;;6.82;100.00;100743.97;4940810;28;20383;-73
2023/04/23 00:59:50;;;;;;;;;;;;;;;6.80;100.00;100744.03;4958146;28;19933;-73
2023/04/23 01:02:16;;;;;;;;;;;;;;;6.79;100.00;100741.50;4935660;28;20053;-73
2023/04/23 01:04:42;;;;;;;;;;;;;;;6.83;100.00;100741.19;4941739;28;19922;-73
2023/04/23 01:07:07;;;;;;;;;;;;;;;6.80;100.00;100733.38;4945076;28;19950;-73
2023/04/23 01:09:33;;;;;;;;;;;;;;;6.85;100.00;100741.94;4952695;28;20017;-73
2023/04/23 01:11:58;;;;;;;;;;;;;;;6.86;100.00;100735.66;4941039;28;20472;-73
2023/04/23 01:14:23;;;;;;;;;;;;;;;6.88;100.00;100732.91;4939692;28;19934;-73
2023/04/23 01:16:48;;;;;;;;;;;;;;;6.88;100.00;100731.06;4940186;28;19985;-73
2023/04/23 01:19:14;;;;;;;;;;;;;;;6.84;100.00;100737.56;4951247;28;19929;-73
2023/04/23 01:21:40;;;;;;;;;;;;;;;6.82;100.00;100730.63;4941404;28;19922;-73
2023/04/23 01:24:05;;;;;;;;;;;;;;;6.75;100.00;100735.50;4946660;28;19922;-74
2023/04/23 01:26:31;;;;;;;;;;;;;;;6.75;100.00;100728.34;4936573;28;19921;-73
2023/04/23 01:28:56;;;;;;;;;;;;;;;6.74;100.00;100729.28;4933684;28;19922;-73
2023/04/23 01:31:21;;;;;;;;;;;;;;;6.71;100.00;100721.47;4943547;28;20479;-73
2023/04/23 01:33:46;;;;;;;;;;;;;;;6.78;100.00;100721.94;4937020;28;19922;-73
2023/04/23 01:36:12;;;;;;;;;;;;;;;6.87;100.00;100725.84;4938858;28;20185;-73
2023/04/23 01:38:37;;;;;;;;;;;;;;;6.97;100.00;100715.44;4941466;28;19973;-73
2023/04/23 01:41:02;;;;;;;;;;;;;;;7.02;100.00;100722.19;4942158;28;20029;-73
2023/04/23 01:43:28;;;;;;;;;;;;;;;6.96;100.00;100716.38;4940899;28;19926;-73
2023/04/23 01:45:53;;;;;;;;;;;;;;;6.96;100.00;100717.22;4953892;28;19953;-73
2023/04/23 01:48:19;;;;;;;;;;;;;;;6.91;100.00;100714.00;4943820;28;20004;-73
2023/04/23 01:50:44;;;;;;;;;;;;;;;6.90;100.00;100709.63;4946741;28;19922;-73
2023/04/23 01:53:09;;;;;;;;;;;;;;;6.98;100.00;100711.81;4958027;28;19970;-73
2023/04/23 01:55:38;;;;;;;;;;;;;;;6.98;100.00;100706.47;4957162;28;20824;-73
2023/04/23 01:58:03;;;;;;;;;;;;;;;7.04;100.00;100708.72;4947397;28;20728;-73
2023/04/23 02:00:28;;;;;;;;;;;;;;;6.98;100.00;100711.81;4953398;28;20205;-73
2023/04/23 02:02:54;;;;;;;;;;;;;;;6.94;100.00;100708.47;4944776;28;19968;-73
2023/04/23 02:05:19;;;;;;;;;;;;;;;7.04;100.00;100708.72;4948760;28;20339;-73
2023/04/23 02:07:45;;;;;;;;;;;;;;;6.99;100.00;100708.19;4947896;28;19933;-73
2023/04/23 02:10:10;;;;;;;;;;;;;;;7.03;100.00;100710.53;4950096;28;19921;-73
2023/04/23 02:12:36;;;;;;;;;;;;;;;7.00;100.00;100710.75;4947118;28;19932;-73
2023/04/23 02:15:01;;;;;;;;;;;;;;;6.96;100.00;100709.22;4931467;28;19972;-73
2023/04/23 02:17:27;;;;;;;;;;;;;;;6.98;100.00;100704.66;4961668;28;19922;-73
2023/04/23 02:19:54;;;;;;;;;;;;;;;6.96;100.00;100701.22;4952599;28;20432;-73
2023/04/23 02:22:21;;;;;;;;;;;;;;;6.94;100.00;100708.47;4962623;28;20448;-73
2023/04/23 02:24:46;;;;;;;;;;;;;;;6.96;100.00;100698.53;4949615;28;19989;-73
2023/04/23 02:27:11;;;;;;;;;;;;;;;6.87;100.00;100700.00;4955988;28;20016;-73
2023/04/23 02:29:37;;;;;;;;;;;;;;;6.96;100.00;100698.53;4944809;28;19922;-73
2023/04/23 02:32:02;;;;;;;;;;;;;;;6.87;100.00;100699.16;4943085;28;19930;-73
2023/04/23 02:34:27;;;;;;;;;;;;;;;6.88;100.00;100692.88;4951389;28;19961;-73
2023/04/23 02:36:52;;;;;;;;;;;;;;;6.94;100.00;100691.59;4943059;28;20297;-73
2023/04/23 02:39:18;;;;;;;;;;;;;;;6.86;100.00;100692.94;4947956;28;20313;-73
2023/04/23 02:41:43;;;;;;;;;;;;;;;6.83;100.00;100693.16;4945493;28;19922;-73
2023/04/23 02:44:08;;;;;;;;;;;;;;;6.81;100.00;100689.72;4947168;28;19922;-73
2023/04/23 02:46:35;;;;;;;;;;;;;;;6.79;100.00;100678.28;4949560;28;19946;-73
2023/04/23 02:49:00;;;;;;;;;;;;;;;6.74;100.00;100680.41;4936554;28;19975;-73
2023/04/23 02:51:26;;;;;;;;;;;;;;;6.86;100.00;100681.44;4933791;28;19938;-73
2023/04/23 02:53:51;;;;;;;;;;;;;;;6.83;100.00;100677.13;4938403;28;19969;-73
2023/04/23 02:56:16;;;;;;;;;;;;;;;6.78;100.00;100676.56;4944984;28;20364;-73
2023/04/23 02:58:41;;;;;;;;;;;;;;;6.77;100.00;100679.34;4928517;28;19923;-73
2023/04/23 03:01:07;;;;;;;;;;;;;;;6.82;100.00;100688.75;4945994;28;19922;-73
2023/04/23 03:03:32;;;;;;;;;;;;;;;6.78;100.00;100681.91;4941814;28;19960;-73
2023/04/23 03:05:58;;;;;;;;;;;;;;;6.72;100.00;100685.84;4953409;28;20048;-74
2023/04/23 03:08:23;;;;;;;;;;;;;;;6.67;100.00;100695.09;4958414;28;19926;-74
2023/04/23 03:10:49;;;;;;;;;;;;;;;6.70;100.00;100686.91;4959036;28;19956;-73
2023/04/23 03:13:14;;;;;;;;;;;;;;;6.75;100.00;100704.31;4956959;28;20021;-73
2023/04/23 03:15:40;;;;;;;;;;;;;;;6.83;100.00;100689.63;4956734;28;19972;-73
2023/04/23 03:18:07;;;;;;;;;;;;;;;6.90;100.00;100690.94;4948479;28;19933;-73
2023/04/23 03:20:32;;;;;;;;;;;;;;;6.99;100.00;100694.84;4955880;28;20562;-73
2023/04/23 03:22:57;;;;;;;;;;;;;;;7.01;100.00;100687.59;4954985;28;19928;-73
2023/04/23 03:25:24;;;;;;;;;;;;;;;7.00;100.00;100684.03;4959347;28;19926;-74
2023/04/23 03:27:50;;;;;;;;;;;;;;;7.10;100.00;100680.78;4956336;28;20325;-73
2023/04/23 03:30:15;;;;;;;;;;;;;;;7.24;100.00;100675.38;4953472;28;20600;-74
2023/04/23 03:32:40;;;;;;;;;;;;;;;7.17;100.00;100676.72;4936989;28;20068;-73
2023/04/23 03:35:06;;;;;;;;;;;;;;;7.24;100.00;100671.88;4961797;28;20429;-73
2023/04/23 03:37:31;;;;;;;;;;;;;;;7.34;100.00;100664.94;4957161;28;20368;-73
2023/04/23 03:39:56;;;;;;;;;;;;;;;7.37;100.00;100666.56;4958983;28;20513;-73
2023/04/23 03:42:21;;;;;;;;;;;;;;;7.39;100.00;100664.66;4957844;28;20037;-73
2023/04/23 03:44:47;;;;;;;;;;;;;;;7.38;100.00;100662.94;4957114;28;19929;-73
2023/04/23 03:47:12;;;;;;;;;;;;;;;7.41;100.00;100657.38;4956564;28;19988;-73
2023/04/23 03:49:37;;;;;;;;;;;;;;;7.44;100.00;100652.69;4940494;28;20636;-74
2023/04/23 03:52:03;;;;;;;;;;;;;;;7.46;100.00;100649.88;4955591;28;20386;-73
2023/04/23 03:54:28;;;;;;;;;;;;;;;7.49;100.00;100650.56;4959863;28;20380;-73
2023/04/23 03:56:53;;;;;;;;;;;;;;;7.42;100.00;100654.59;4953518;28;19985;-73
2023/04/23 03:59:18;;;;;;;;;;;;;;;7.42;100.00;100649.25;4943567;28;20233;-73
2023/04/23 04:01:44;;;;;;;;;;;;;;;7.52;100.00;100657.50;4937905;28;19922;-73
2023/04/23 04:04:09;;;;;;;;;;;;;;;7.58;100.00;100658.88;4931664;28;19964;-73
2023/04/23 04:06:34;;;;;;;;;;;;;;;7.64;100.00;100659.34;4950254;28;20009;-73
2023/04/23 04:08:59;;;;;;;;;;;;;;;7.80;100.00;100659.16;4941945;28;19922;-73
2023/04/23 04:11:25;;;;;;;;;;;;;;;7.76;100.00;100656.78;4959381;28;20392;-73
2023/04/23 04:13:50;;;;;;;;;;;;;;;7.84;100.00;100661.59;4955127;28;19921;-73
2023/04/23 04:16:16;;;;;;;;;;;;;;;7.83;100.00;100660.75;4959174;28;20376;-73
2023/04/23 04:18:41;;;;;;;;;;;;;;;7.89;100.00;100652.31;4952070;28;20057;-73
2023/04/23 04:21:06;;;;;;;;;;;;;;;7.90;100.00;100654.00;4957602;28;19964;-73
2023/04/23 04:23:32;;;;;;;;;;;;;;;7.93;100.00;100650.25;4945344;28;19984;-73
2023/04/23 04:25:58;;;;;;;;;;;;;;;8.07;100.00;100660.88;4957208;28;20289;-73
2023/04/23 04:28:24;;;;;;;;;;;;;;;8.20;100.00;100662.66;4959118;28;19926;-73
2023/04/23 04:30:49;;;;;;;;;;;;;;;7.99;100.00;100671.22;4951060;28;19933;-73
2023/04/23 04:33:15;;;;;;;;;;;;;;;8.11;100.00;100669.50;4929859;28;20369;-72
2023/04/23 04:35:41;;;;;;;;;;;;;;;8.05;100.00;100669.94;4943673;28;19922;-73
2023/04/23 04:38:06;;;;;;;;;;;;;;;8.06;100.00;100674.31;4957454;28;19989;-73
2023/04/23 04:40:32;;;;;;;;;;;;;;;8.04;100.00;100671.78;4941889;28;19926;-73
2023/04/23 04:42:58;;;;;;;;;;;;;;;8.07;100.00;100674.22;4957677;28;19922;-73
2023/04/23 04:45:24;;;;;;;;;;;;;;;8.27;100.00;100669.28;4944206;28;20137;-73
2023/04/23 04:47:50;;;;;;;;;;;;;;;8.20;100.00;100665.31;4951902;28;19922;-72
2023/04/23 04:50:15;;;;;;;;;;;;;;;8.15;100.00;100671.00;4955014;28;19934;-72
2023/04/23 04:52:41;;;;;;;;;;;;;;;8.17;100.00;100676.25;4946846;28;20386;-73
2023/04/23 04:55:06;;;;;;;;;;;;;;;8.31;100.00;100684.16;4944500;28;20009;-74
2023/04/23 04:57:31;;;;;;;;;;;;;;;8.37;100.00;100677.50;4935883;28;19922;-73
2023/04/23 04:59:56;;;;;;;;;;;;;;;8.38;100.00;100668.53;4957202;28;19942;-73
2023/04/23 05:02:22;;;;;;;;;;;;;;;8.45;100.00;100671.59;4943053;28;19922;-73
2023/04/23 05:04:47;;;;;;;;;;;;;;;8.42;100.00;100672.69;4941358;28;19977;-73
2023/04/23 05:07:12;;;;;;;;;;;;;;;8.51;100.00;100669.38;4944106;28;19928;-73
2023/04/23 05:09:38;;;;;;;;;;;;;;;8.53;100.00;100658.56;4940032;28;19922;-73
2023/04/23 05:12:06;;;;;;;;;;;;;;;8.66;100.00;100651.34;4945387;28;19926;-73
2023/04/23 05:14:31;;;;;;;;;;;;;;;8.36;100.00;100654.41;4960328;28;20726;-73
2023/04/23 05:16:56;;;;;;;;;;;;;;;8.53;100.00;100656.75;4960579;28;19928;-73
2023/04/23 05:19:22;;;;;;;;;;;;;;;8.46;100.00;100660.81;4953155;28;19929;-73
2023/04/23 05:21:47;;;;;;;;;;;;;;;8.35;100.00;100666.91;4955678;28;19922;-73
2023/04/23 05:24:12;;;;;;;;;;;;;;;8.43;100.00;100662.84;4946386;28;19942;-73
2023/04/23 05:26:38;;;;;;;;;;;;;;;8.51;100.00;100665.84;4957068;28;19922;-73
2023/04/23 05:29:03;;;;;;;;;;;;;;;8.56;100.00;100669.06;4957469;28;19969;-72
2023/04/23 05:31:28;;;;;;;;;;;;;;;8.68;100.00;100667.31;4963273;28;20012;-73
2023/04/23 05:33:53;;;;;;;;;;;;;;;8.60;100.00;100667.00;4952782;28;19926;-73
2023/04/23 05:36:19;;;;;;;;;;;;;;;8.93;100.00;100662.84;4956354;28;19922;-72
2023/04/23 05:38:44;;;;;;;;;;;;;;;8.93;100.00;100668.19;4952170;28;19922;-73
2023/04/23 05:41:09;;;;;;;;;;;;;;;8.69;100.00;100674.38;4944832;28;19922;-73
2023/04/23 05:43:34;;;;;;;;;;;;;;;8.78;100.00;100665.66;4947117;28;19941;-73
2023/04/23 05:46:00;;;;;;;;;;;;;;;8.94;100.00;100656.50;4941797;28;19953;-73
2023/04/23 05:48:25;;;;;;;;;;;;;;;8.96;100.00;100668.81;4955742;28;20440;-73
2023/04/23 05:50:50;;;;;;;;;;;;;;;8.99;100.00;100659.72;4954796;28;20040;-72
2023/04/23 05:53:15;;;;;;;;;;;;;;;9.22;100.00;100663.34;4938921;28;20350;-73
2023/04/23 05:55:41;;;;;;;;;;;;;;;9.40;100.00;100660.25;4942614;28;19926;-74
2023/04/23 05:58:06;;;;;;;;;;;;;;;9.52;100.00;100661.16;4938563;28;19965;-73
2023/04/23 06:00:31;;;;;;;;;;;;;;;9.68;100.00;100656.31;4928114;28;20020;-73
2023/04/23 06:02:56;;;;;;;;;;;;;;;9.79;100.00;100662.69;4944504;28;19968;-73
2023/04/23 06:05:22;;;;;;;;;;;;;;;9.88;100.00;100646.72;4933754;28;19929;-73
2023/04/23 06:07:47;;;;;;;;;;;;;;;9.76;100.00;100653.03;4942958;28;19944;-73
2023/04/23 06:10:12;;;;;;;;;;;;;;;9.76;100.00;100650.34;4932578;28;19922;-74
2023/04/23 06:12:38;;;;;;;;;;;;;;;9.92;100.00;100646.50;4942679;28;19976;-73
2023/04/23 06:15:05;;;;;;;;;;;;;;;9.77;100.00;100646.69;4935606;28;20017;-73
2023/04/23 06:17:31;;;;;;;;;;;;;;;9.73;100.00;100631.81;4938952;28;20377;-73
2023/04/23 06:19:56;;;;;;;;;;;;;;;10.01;100.00;100651.09;4942970;28;20365;-73
2023/04/23 06:22:21;;;;;;;;;;;;;;;10.20;100.00;100647.84;4940609;28;19970;-73
2023/04/23 06:24:46;;;;;;;;;;;;;;;10.28;100.00;100649.91;4932863;28;20017;-73
2023/04/23 06:27:12;;;;;;;;;;;;;;;10.31;100.00;100641.63;4924471;28;19922;-73
2023/04/23 06:29:37;;;;;;;;;;;;;;;10.37;100.00;100643.81;4938312;28;20279;-73
2023/04/23 06:32:03;;;;;;;;;;;;;;;10.37;100.00;100641.13;4942333;28;20401;-73
2023/04/23 06:34:28;;;;;;;;;;;;;;;10.58;100.00;100632.34;4938847;28;19922;-73
2023/04/23 06:36:53;;;;;;;;;;;;;;;10.67;100.00;100630.72;4946183;28;19937;-73
2023/04/23 06:39:18;;;;;;;;;;;;;;;10.83;100.00;100630.34;4940509;28;19932;-74
2023/04/23 06:41:44;;;;;;;;;;;;;;;10.77;100.00;100620.97;4958767;28;19926;-75
2023/04/23 06:44:09;;;;;;;;;;;;;;;10.92;100.00;100619.69;4942774;28;19933;-76
2023/04/23 06:46:34;;;;;;;;;;;;;;;10.94;100.00;100611.50;4942488;28;19922;-80
2023/04/23 06:49:00;;;;;;;;;;;;;;;11.27;100.00;100606.94;4957042;28;19929;-73
2023/04/23 06:51:26;;;;;;;;;;;;;;;11.33;100.00;100614.50;4939697;28;20484;-73
2023/04/23 06:53:51;;;;;;;;;;;;;;;11.51;100.00;100605.88;4949370;28;19922;-74
2023/04/23 06:56:17;;;;;;;;;;;;;;;11.29;100.00;100613.03;4959925;28;20296;-73
2023/04/23 06:58:42;;;;;;;;;;;;;;;11.62;100.00;100602.25;4943390;28;20290;-74
2023/04/23 07:01:07;;;;;;;;;;;;;;;11.78;100.00;100591.03;4943078;28;19926;-74
2023/04/23 07:03:33;;;;;;;;;;;;;;;11.60;100.00;100597.00;4943125;28;20440;-76
2023/04/23 07:05:58;;;;;;;;;;;;;;;11.97;100.00;100596.50;4940422;28;20424;-73
2023/04/23 07:08:23;;;;;;;;;;;;;;;11.96;100.00;100593.91;4956122;28;19933;-75
2023/04/23 07:10:49;;;;;;;;;;;;;;;11.95;100.00;100601.16;4957224;28;19929;-76
2023/04/23 07:13:14;;;;;;;;;;;;;;;12.02;100.00;100609.56;4934809;28;20464;-74
2023/04/23 07:15:40;;;;;;;;;;;;;;;12.21;100.00;100591.78;4944409;28;19922;-76
2023/04/23 07:18:05;;;;;;;;;;;;;;;12.12;100.00;100596.16;4941931;28;20546;-74
2023/04/23 07:20:31;;;;;;;;;;;;;;;12.21;100.00;100592.66;4943755;28;19947;-75
2023/04/23 07:22:56;;;;;;;;;;;;;;;12.37;100.00;100586.75;4940836;28;19922;-77
2023/04/23 07:25:23;;;;;;;;;;;;;;;12.49;100.00;100583.94;4942723;28;19922;-76
2023/04/23 07:27:48;;;;;;;;;;;;;;;12.51;100.00;100584.66;4944022;28;20403;-73
2023/04/23 07:30:14;;;;;;;;;;;;;;;12.73;100.00;100588.94;4943204;28;19933;-73
2023/04/23 07:32:39;;;;;;;;;;;;;;;12.65;100.00;100592.34;4938429;28;20392;-74
2023/04/23 07:35:04;;;;;;;;;;;;;;;12.82;100.00;100585.41;4942268;28;19983;-74
2023/04/23 07:37:29;;;;;;;;;;;;;;;12.86;100.00;100585.97;4956365;28;19925;-76
2023/04/23 07:39:55;;;;;;;;;;;;;;;12.98;100.00;100584.84;4957139;28;20099;-74
2023/04/23 07:42:20;;;;;;;;;;;;;;;12.97;100.00;100585.84;4930090;28;19969;-74
2023/04/23 07:44:45;;;;;;;;;;;;;;;13.07;100.00;100596.63;4953729;28;20041;-74
2023/04/23 07:47:10;;;;;;;;;;;;;;;13.35;100.00;100573.31;4941331;28;20101;-75
2023/04/23 07:49:35;;;;;;;;;;;;;;;13.57;100.00;100575.88;4946394;28;20402;-77
2023/04/23 07:52:01;;;;;;;;;;;;;;;13.32;100.00;100579.00;4945733;28;20000;-73
2023/04/23 07:54:26;;;;;;;;;;;;;;;13.31;100.00;100581.84;4935377;28;20012;-78
2023/04/23 07:56:51;;;;;;;;;;;;;;;13.43;100.00;100580.72;4941124;28;19922;-72
2023/04/23 07:59:16;;;;;;;;;;;;;;;13.72;100.00;100578.97;4953022;28;20008;-73
2023/04/23 08:01:42;;;;;;;;;;;;;;;13.76;100.00;100575.00;4942802;28;19921;-75
2023/04/23 08:04:07;;;;;;;;;;;;;;;13.64;100.00;100561.66;4943005;28;19941;-73
2023/04/23 08:06:34;;;;;;;;;;;;;;;13.86;100.00;100569.56;4940509;28;19918;-76
2023/04/23 08:08:59;;;;;;;;;;;;;;;13.60;100.00;100549.47;4936673;28;19953;-74
2023/04/23 08:11:24;;;;;;;;;;;;;;;13.72;100.00;100565.47;4945617;28;20392;-73
2023/04/23 08:13:50;;;;;;;;;;;;;;;13.94;100.00;100566.94;4941194;28;20468;-79
2023/04/23 08:16:15;;;;;;;;;;;;;;;13.86;100.00;100556.06;4941279;28;19922;-78
2023/04/23 08:18:40;;;;;;;;;;;;;;;13.97;100.00;100560.41;4943452;28;19922;-74
2023/04/23 08:21:05;;;;;;;;;;;;;;;14.14;100.00;100561.47;4926656;28;19929;-73
2023/04/23 08:23:30;;;;;;;;;;;;;;;14.28;100.00;100562.84;4959754;28;19921;-76
2023/04/23 08:25:56;;;;;;;;;;;;;;;14.09;100.00;100554.69;4942879;28;19962;-79
2023/04/23 08:28:21;;;;;;;;;;;;;;;14.28;100.00;100555.56;4942227;28;20029;-73
2023/04/23 08:30:46;;;;;;;;;;;;;;;14.41;100.00;100557.91;4960299;28;19963;-80
2023/04/23 08:33:11;;;;;;;;;;;;;;;14.37;100.00;100557.38;4943062;28;20036;-78
2023/04/23 08:35:37;;;;;;;;;;;;;;;14.67;100.00;100541.81;4945680;28;19921;-77
2023/04/23 08:38:02;;;;;;;;;;;;;;;14.77;100.00;100554.41;4945563;28;20991;-73
2023/04/23 08:40:29;;;;;;;;;;;;;;;14.98;100.00;100548.72;4957416;28;19969;-75
2023/04/23 08:43:00;;;;;;;;;;;;;;;15.04;100.00;100533.72;4944968;28;20381;-82
2023/04/23 08:45:25;;;;;;;;;;;;;;;15.09;100.00;100553.88;4949316;28;19922;-77
2023/04/23 08:47:51;;;;;;;;;;;;;;;15.16;100.00;100535.19;4946532;28;19926;-76
2023/04/23 08:50:16;;;;;;;;;;;;;;;14.90;100.00;100548.63;4941249;28;20012;-76
2023/04/23 08:52:45;;;;;;;;;;;;;;;15.04;100.00;100550.78;4944593;28;20057;-74
2023/04/23 08:55:11;;;;;;;;;;;;;;;15.35;100.00;100536.84;4940738;28;20364;-78
2023/04/23 08:57:37;;;;;;;;;;;;;;;15.28;100.00;100535.75;4941089;28;19922;-74
2023/04/23 09:00:04;;;;;;;;;;;;;;;15.25;100.00;100523.38;4938643;28;20288;-73
2023/04/23 09:02:30;;;;;;;;;;;;;;;15.39;100.00;100545.47;4942624;28;19933;-75
2023/04/23 09:04:55;;;;;;;;;;;;;;;15.28;100.00;100512.25;4939482;28;19926;-76
2023/04/23 09:07:20;;;;;;;;;;;;;;;15.58;100.00;100537.13;4935034;28;19930;-75
2023/04/23 09:09:45;;;;;;;;;;;;;;;15.83;100.00;100531.03;4942026;28;20004;-77
2023/04/23 09:12:11;;;;;;;;;;;;;;;15.87;100.00;100532.44;4943668;28;19926;-73
2023/04/23 09:14:36;;;;;;;;;;;;;;;15.91;100.00;100533.78;4943656;28;19957;-78
2023/04/23 09:17:01;;;;;;;;;;;;;;;15.84;100.00;100528.16;4941608;28;20065;-75
2023/04/23 09:19:27;;;;;;;;;;;;;;;15.78;100.00;100528.78;4941059;28;20207;-73
2023/04/23 09:21:52;;;;;;;;;;;;;;;15.54;100.00;100533.06;4937462;28;19923;-73
2023/04/23 09:24:17;;;;;;;;;;;;;;;15.77;100.00;100531.66;4926761;28;20599;-80
2023/04/23 09:26:43;;;;;;;;;;;;;;;15.94;100.00;100536.16;4942124;28;19961;-78
2023/04/23 09:29:16;;;;;;;;;;;;;;;15.62;100.00;100517.88;4924995;28;20018;-77
2023/04/23 09:31:41;;;;;;;;;;;;;;;15.86;100.00;100526.16;4944622;28;19922;-74
2023/04/23 09:34:07;;;;;;;;;;;;;;;15.85;100.00;100515.47;4939313;28;19929;-77
2023/04/23 09:36:32;;;;;;;;;;;;;;;16.16;100.00;100525.75;4937903;28;19945;-80
2023/04/23 09:38:57;;;;;;;;;;;;;;;16.20;100.00;100532.56;4939832;28;19918;-78
2023/04/23 09:41:24;;;;;;;;;;;;;;;16.02;100.00;100529.97;4960224;28;19933;-77
2023/04/23 09:43:51;;;;;;;;;;;;;;;16.13;100.00;100526.13;4926987;28;19922;-75
2023/04/23 09:46:16;;;;;;;;;;;;;;;16.26;100.00;100525.66;4943601;28;19969;-75
2023/04/23 09:48:42;;;;;;;;;;;;;;;16.39;100.00;100517.06;4947508;28;19926;-79
2023/04/23 09:51:07;;;;;;;;;;;;;;;16.54;100.00;100519.97;4942755;28;19921;-78
2023/04/23 09:53:39;;;;;;;;;;;;;;;16.18;100.00;100518.31;4945532;28;20017;-77
2023/04/23 09:56:06;;;;;;;;;;;;;;;16.23;100.00;100518.69;4932079;28;20087;-78
2023/04/23 09:58:31;;;;;;;;;;;;;;;15.87;100.00;100508.06;4941109;28;20478;-77
2023/04/23 10:01:04;;;;;;;;;;;;;;;16.01;100.00;100503.91;4941965;28;19926;-75
2023/04/23 10:03:30;;;;;;;;;;;;;;;15.83;100.00;100498.53;4939350;28;19925;-73
2023/04/23 10:05:55;;;;;;;;;;;;;;;16.08;99.39;100499.50;4944493;28;19929;-72
2023/04/23 10:08:20;;;;;;;;;;;;;;;15.97;97.61;100495.25;4927498;28;19956;-72
2023/04/23 10:10:45;;;;;;;;;;;;;;;15.98;87.55;100496.09;4945729;28;19957;-73
2023/04/23 10:13:11;;;;;;;;;;;;;;;16.29;91.17;100490.94;4961068;28;20457;-74
2023/04/23 10:15:36;;;;;;;;;;;;;;;16.06;97.21;100501.53;4938939;28;19922;-79
2023/04/23 10:18:02;;;;;;;;;;;;;;;16.07;87.04;100502.38;4942534;28;19926;-75
2023/04/23 10:20:27;;;;;;;;;;;;;;;16.28;81.92;100497.38;4961541;28;19957;-76
2023/04/23 10:22:53;;;;;;;;;;;;;;;16.48;84.44;100500.63;4934628;28;20329;-78
2023/04/23 10:25:18;;;;;;;;;;;;;;;16.89;84.63;100488.13;4940034;28;19921;-74
2023/04/23 10:27:45;;;;;;;;;;;;;;;16.43;89.00;100496.72;4936872;28;19933;-77
2023/04/23 10:30:12;;;;;;;;;;;;;;;15.98;87.41;100487.97;4937289;28;19930;-77
2023/04/23 10:32:38;;;;;;;;;;;;;;;15.80;89.75;100485.34;4932118;28;19941;-76
2023/04/23 10:35:03;;;;;;;;;;;;;;;16.08;94.02;100498.66;4940097;28;19959;-77
2023/04/23 10:37:29;;;;;;;;;;;;;;;16.16;84.97;100485.13;4944760;28;19929;-73
2023/04/23 10:39:54;;;;;;;;;;;;;;;16.32;89.00;100482.50;4957512;28;19970;-75
2023/04/23 10:42:20;;;;;;;;;;;;;;;16.49;88.44;100472.53;4959793;28;20044;-72
2023/04/23 10:44:45;;;;;;;;;;;;;;;16.68;84.82;100475.09;4941316;28;19922;-73
2023/04/23 10:47:11;;;;;;;;;;;;;;;16.69;83.47;100472.19;4955412;28;19930;-72
2023/04/23 10:49:36;;;;;;;;;;;;;;;16.90;81.18;100468.13;4949578;28;20288;-76
2023/04/23 10:52:02;;;;;;;;;;;;;;;16.76;80.49;100450.69;4943966;28;19926;-75
2023/04/23 10:54:31;;;;;;;;;;;;;;;16.39;84.83;100452.84;4945411;28;19926;-75
2023/04/23 10:56:57;;;;;;;;;;;;;;;16.06;85.99;100460.91;4945095;28;19922;-74
2023/04/23 10:59:22;;;;;;;;;;;;;;;16.09;89.66;100449.75;4935291;28;20592;-72
2023/04/23 11:01:51;;;;;;;;;;;;;;;16.10;87.05;100451.44;4943969;28;19922;-73
2023/04/23 11:04:23;;;;;;;;;;;;;;;16.03;92.33;100451.25;4942851;28;20365;-74
2023/04/23 11:06:48;;;;;;;;;;;;;;;16.22;81.73;100445.72;4940358;28;20292;-74
2023/04/23 11:09:32;;;;;;;;;;;;;;;16.40;80.24;100437.47;4957092;28;19922;-71
2023/04/23 11:11:58;;;;;;;;;;;;;;;16.60;81.29;100441.53;4962917;28;20305;-73
2023/04/23 11:14:33;;;;;;;;;;;;;;;16.69;83.72;100444.22;4940783;28;19926;-73
2023/04/23 11:16:58;;;;;;;;;;;;;;;16.89;88.11;100436.59;4936914;28;20381;-73
2023/04/23 11:19:23;;;;;;;;;;;;;;;17.23;83.33;100433.69;4956218;28;19922;-72
2023/04/23 11:22:06;;;;;;;;;;;;;;;17.31;83.42;100438.28;4956789;28;19922;-73
2023/04/23 11:24:41;;;;;;;;;;;;;;;17.19;83.90;100421.53;4941364;28;19972;-74
2023/04/23 11:27:07;;;;;;;;;;;;;;;17.21;81.47;100416.78;4952138;28;19968;-74
2023/04/23 11:29:33;;;;;;;;;;;;;;;17.52;75.21;100417.84;4947825;28;19929;-72
2023/04/23 11:31:58;;;;;;;;;;;;;;;17.76;82.23;100406.00;4955734;28;19926;-73
2023/04/23 11:34:24;;;;;;;;;;;;;;;17.57;81.57;100415.47;4963522;28;20720;-78
2023/04/23 11:36:50;;;;;;;;;;;;;;;17.01;79.81;100391.88;4954981;28;19957;-76
2023/04/23 11:39:17;;;;;;;;;;;;;;;16.89;81.62;100396.78;4937118;28;20284;-77
2023/04/23 11:41:45;;;;;;;;;;;;;;;16.58;76.13;100389.38;4941370;28;20298;-81
2023/04/23 11:44:10;;;;;;;;;;;;;;;16.26;79.94;100391.03;4938084;28;19922;-74
2023/04/23 11:46:36;;;;;;;;;;;;;;;16.02;85.01;100381.03;4954962;28;19928;-75
2023/04/23 11:49:02;;;;;;;;;;;;;;;16.32;84.47;100375.97;4952250;28;19923;-72
2023/04/23 11:51:27;;;;;;;;;;;;;;;16.34;83.15;100376.66;4954854;28;19928;-75
2023/04/23 11:53:52;;;;;;;;;;;;;;;16.29;88.88;100370.88;4940500;28;20212;-74
2023/04/23 11:56:18;;;;;;;;;;;;;;;16.49;88.10;100366.00;4953477;28;20017;-74
2023/04/23 11:58:44;;;;;;;;;;;;;;;16.40;85.90;100359.72;4928268;28;20335;-75
2023/04/23 12:01:10;;;;;;;;;;;;;;;16.15;85.98;100345.34;4946198;28;19926;-73
2023/04/23 12:03:35;;;;;;;;;;;;;;;16.23;88.46;100345.34;4955386;28;19932;-71
2023/04/23 12:06:00;;;;;;;;;;;;;;;16.44;88.76;100343.97;4957228;28;19922;-73
2023/04/23 12:08:30;;;;;;;;;;;;;;;16.24;85.92;100355.16;4937283;28;19923;-76
2023/04/23 12:10:59;;;;;;;;;;;;;;;16.75;83.26;100352.25;4955862;28;19933;-75
2023/04/23 12:13:26;;;;;;;;;;;;;;;16.97;87.44;100347.16;4926329;28;19933;-79
2023/04/23 12:15:55;;;;;;;;;;;;;;;17.21;83.60;100338.09;4937881;28;19970;-77
2023/04/23 12:18:25;;;;;;;;;;;;;;;17.57;81.18;100319.59;4926589;28;20307;-77
2023/04/23 12:20:50;;;;;;;;;;;;;;;17.38;76.64;100341.56;4944283;28;20032;-77
2023/04/23 12:23:16;;;;;;;;;;;;;;;17.60;77.49;100330.97;4943960;28;20108;-78
2023/04/23 12:25:41;;;;;;;;;;;;;;;17.65;76.07;100325.00;4944216;28;19968;-76